Time;durP1;ratioP1;P1;durP2;ratioP2;P2;SDS_P1;SDS_P2;PMS_P1;PMS_P2;Temp;Humidity;BMP_temperature;BMP_pressure;BME280_temperature;BME280_humidity;BME280_pressure;Samples;Min_cycle;Max_cycle;Signal;HPM_P1;HPM_P2
2021/07/12 00:00:14;;;;;;;10.25;4.30;;;;;;;;;;5053318;28;20017;-88
2021/07/12 00:02:40;;;;;;;6.80;4.18;;;;;;;;;;5051824;28;20031;-88
2021/07/12 00:05:05;;;;;;;6.15;4.32;;;;;;;;;;5051361;28;20025;-88
2021/07/12 00:07:31;;;;;;;5.28;3.80;;;;;;;;;;5052080;28;20029;-88
2021/07/12 00:09:56;;;;;;;6.28;4.30;;;;;;;;;;5051915;28;20074;-87
2021/07/12 00:12:21;;;;;;;7.63;4.55;;;;;;;;;;5057164;28;20024;-88
2021/07/12 00:14:46;;;;;;;6.32;4.38;;;;;;;;;;5063843;28;20051;-88
2021/07/12 00:17:11;;;;;;;5.15;3.70;;;;;;;;;;5057797;28;20073;-88
2021/07/12 00:19:37;;;;;;;6.00;4.13;;;;;;;;;;5053529;28;20017;-88
2021/07/12 00:22:02;;;;;;;10.10;4.03;;;;;;;;;;5071933;28;20328;-88
2021/07/12 00:24:27;;;;;;;5.47;3.65;;;;;;;;;;5058892;28;20075;-88
2021/07/12 00:26:52;;;;;;;3.58;3.13;;;;;;;;;;5057438;28;20032;-88
2021/07/12 00:29:18;;;;;;;5.07;3.40;;;;;;;;;;5057872;28;20057;-88
2021/07/12 00:31:43;;;;;;;6.38;3.47;;;;;;;;;;5065845;28;20053;-88
2021/07/12 00:34:08;;;;;;;8.30;3.75;;;;;;;;;;5051966;28;20047;-87
2021/07/12 00:36:33;;;;;;;3.85;3.30;;;;;;;;;;5053649;28;20024;-87
2021/07/12 00:38:58;;;;;;;5.95;4.30;;;;;;;;;;5058139;28;20028;-88
2021/07/12 00:41:24;;;;;;;8.32;4.88;;;;;;;;;;5060230;28;20349;-88
2021/07/12 00:43:49;;;;;;;6.32;3.50;;;;;;;;;;5055935;28;20432;-88
2021/07/12 00:46:14;;;;;;;12.23;4.82;;;;;;;;;;5058890;28;20440;-88
2021/07/12 00:48:40;;;;;;;5.05;3.50;;;;;;;;;;5054455;28;20017;-88
2021/07/12 00:51:05;;;;;;;8.38;4.00;;;;;;;;;;5059655;28;20028;-88
2021/07/12 00:53:31;;;;;;;8.82;3.95;;;;;;;;;;5071564;28;20020;-88
2021/07/12 00:55:56;;;;;;;5.82;4.22;;;;;;;;;;5061015;28;20047;-87
2021/07/12 00:58:23;;;;;;;5.97;3.92;;;;;;;;;;5064420;28;20028;-88
2021/07/12 01:00:50;;;;;;;7.38;3.90;;;;;;;;;;5056951;28;20021;-88
2021/07/12 01:03:15;;;;;;;12.75;4.18;;;;;;;;;;5066676;28;20016;-87
2021/07/12 01:05:41;;;;;;;6.82;4.40;;;;;;;;;;5065852;28;20025;-88
2021/07/12 01:08:06;;;;;;;8.70;6.05;;;;;;;;;;5051405;28;20017;-87
2021/07/12 01:10:32;;;;;;;10.07;5.80;;;;;;;;;;5063975;28;20028;-88
2021/07/12 01:13:01;;;;;;;6.40;4.60;;;;;;;;;;5062706;28;20020;-88
2021/07/12 01:15:28;;;;;;;8.68;4.53;;;;;;;;;;5067664;28;20045;-88
2021/07/12 01:18:10;;;;;;;8.43;4.72;;;;;;;;;;5066883;28;20028;-88
2021/07/12 01:20:45;;;;;;;6.38;4.78;;;;;;;;;;5068382;28;20020;-87
2021/07/12 01:23:15;;;;;;;9.52;4.55;;;;;;;;;;5062059;28;20417;-87
2021/07/12 01:26:02;;;;;;;9.38;4.93;;;;;;;;;;5063382;28;20017;-87
2021/07/12 01:28:45;;;;;;;8.90;4.72;;;;;;;;;;5053295;28;20064;-87
2021/07/12 01:31:16;;;;;;;11.23;4.63;;;;;;;;;;5051715;28;20360;-87
2021/07/12 01:33:46;;;;;;;6.38;3.97;;;;;;;;;;5076327;28;20039;-87
2021/07/12 01:36:20;;;;;;;9.63;4.47;;;;;;;;;;5074866;28;20476;-87
2021/07/12 01:38:57;;;;;;;7.10;3.72;;;;;;;;;;5061961;28;20024;-88
2021/07/12 01:41:29;;;;;;;6.55;4.00;;;;;;;;;;5058047;28;20044;-87
2021/07/12 01:44:13;;;;;;;5.13;3.78;;;;;;;;;;5068597;28;20031;-88
2021/07/12 01:46:46;;;;;;;5.68;3.58;;;;;;;;;;5068662;28;20064;-88
2021/07/12 01:49:23;;;;;;;9.95;3.40;;;;;;;;;;5057144;28;20124;-87
2021/07/12 01:52:05;;;;;;;4.32;3.60;;;;;;;;;;5061469;28;20447;-88
2021/07/12 01:54:32;;;;;;;5.15;4.03;;;;;;;;;;5063132;28;20096;-87
2021/07/12 01:57:01;;;;;;;4.72;3.88;;;;;;;;;;5058873;28;20020;-87
2021/07/12 01:59:33;;;;;;;6.65;3.85;;;;;;;;;;5066550;28;20020;-87
2021/07/12 02:01:59;;;;;;;6.68;3.90;;;;;;;;;;5054186;28;20020;-87
2021/07/12 02:04:26;;;;;;;7.75;4.20;;;;;;;;;;5061931;28;20025;-87
2021/07/12 02:06:52;;;;;;;13.70;4.38;;;;;;;;;;5054691;28;20029;-87
2021/07/12 02:09:19;;;;;;;5.10;3.97;;;;;;;;;;5074051;28;20019;-87
2021/07/12 02:11:45;;;;;;;8.05;4.72;;;;;;;;;;5060081;28;20334;-87
2021/07/12 02:14:11;;;;;;;6.30;5.00;;;;;;;;;;5059640;28;20444;-87
2021/07/12 02:16:38;;;;;;;7.15;4.38;;;;;;;;;;5074246;28;20032;-88
2021/07/12 02:19:04;;;;;;;8.27;4.95;;;;;;;;;;5057111;28;20021;-87
2021/07/12 02:21:32;;;;;;;8.70;6.00;;;;;;;;;;5064074;28;20028;-87
2021/07/12 02:23:59;;;;;;;7.55;5.57;;;;;;;;;;5060831;28;20559;-87
2021/07/12 02:26:27;;;;;;;9.57;6.65;;;;;;;;;;5056330;28;20025;-87
2021/07/12 02:28:52;;;;;;;10.38;7.53;;;;;;;;;;5065128;28;20032;-88
2021/07/12 02:31:18;;;;;;;13.25;7.90;;;;;;;;;;5066163;28;20024;-87
2021/07/12 02:33:43;;;;;;;12.60;7.85;;;;;;;;;;5053700;28;20442;-87
2021/07/12 02:36:09;;;;;;;15.07;9.15;;;;;;;;;;5053717;28;20078;-88
2021/07/12 02:38:38;;;;;;;14.35;9.60;;;;;;;;;;5074699;28;20518;-88
2021/07/12 02:41:03;;;;;;;15.98;9.13;;;;;;;;;;5060476;28;20078;-87
2021/07/12 02:43:30;;;;;;;14.10;9.30;;;;;;;;;;5071507;28;20410;-87
2021/07/12 02:45:55;;;;;;;14.35;9.93;;;;;;;;;;5064884;28;20488;-87
2021/07/12 02:48:21;;;;;;;14.98;10.07;;;;;;;;;;5055586;28;20035;-87
2021/07/12 02:50:49;;;;;;;16.92;9.55;;;;;;;;;;5072430;28;20013;-88
2021/07/12 02:53:20;;;;;;;14.02;9.15;;;;;;;;;;5053291;28;20042;-88
2021/07/12 02:55:45;;;;;;;14.43;9.05;;;;;;;;;;5053995;28;20028;-88
2021/07/12 02:58:10;;;;;;;15.70;9.75;;;;;;;;;;5066446;28;20021;-88
2021/07/12 03:00:36;;;;;;;19.38;9.68;;;;;;;;;;5054631;28;20017;-88
2021/07/12 03:03:01;;;;;;;13.20;8.95;;;;;;;;;;5064027;28;20024;-88
2021/07/12 03:05:27;;;;;;;13.52;8.63;;;;;;;;;;5056393;28;20111;-88
2021/07/12 03:08:13;;;;;;;16.92;9.25;;;;;;;;;;5066264;28;20418;-88
2021/07/12 03:10:40;;;;;;;18.48;9.25;;;;;;;;;;5058878;28;20024;-88
2021/07/12 03:13:07;;;;;;;13.05;9.15;;;;;;;;;;5061835;28;20372;-87
2021/07/12 03:15:36;;;;;;;18.42;8.65;;;;;;;;;;5052971;28;20402;-88
2021/07/12 03:18:03;;;;;;;18.55;8.57;;;;;;;;;;5041749;28;20021;-88
2021/07/12 03:20:29;;;;;;;11.68;8.30;;;;;;;;;;5101284;28;20082;-88
2021/07/12 03:22:56;;;;;;;12.48;8.02;;;;;;;;;;5058020;28;20028;-88
2021/07/12 03:25:27;;;;;;;12.68;8.00;;;;;;;;;;5070161;28;20439;-88
2021/07/12 03:27:53;;;;;;;12.43;7.43;;;;;;;;;;5059009;28;20040;-88
2021/07/12 03:30:19;;;;;;;10.38;7.45;;;;;;;;;;5065396;28;20021;-88
2021/07/12 03:32:45;;;;;;;22.75;8.18;;;;;;;;;;5065516;28;20103;-88
2021/07/12 03:35:12;;;;;;;17.23;8.20;;;;;;;;;;5059672;28;20024;-88
2021/07/12 03:37:37;;;;;;;12.73;6.88;;;;;;;;;;5069446;28;20130;-88
2021/07/12 03:40:03;;;;;;;10.82;7.88;;;;;;;;;;5070811;28;20096;-88
2021/07/12 03:42:28;;;;;;;14.45;7.88;;;;;;;;;;5061252;28;20025;-88
2021/07/12 03:44:54;;;;;;;11.38;6.78;;;;;;;;;;5062841;28;20032;-88
2021/07/12 03:47:22;;;;;;;11.80;6.95;;;;;;;;;;5065292;28;20110;-88
2021/07/12 03:49:49;;;;;;;11.07;7.28;;;;;;;;;;5057054;28;20353;-88
2021/07/12 03:52:15;;;;;;;9.48;7.13;;;;;;;;;;5050016;28;20056;-88
2021/07/12 03:54:40;;;;;;;11.50;7.90;;;;;;;;;;5065417;28;20055;-88
2021/07/12 03:57:08;;;;;;;10.57;7.00;;;;;;;;;;5053599;28;20021;-88
2021/07/12 03:59:33;;;;;;;12.73;7.30;;;;;;;;;;5062549;28;20020;-87
2021/07/12 04:01:59;;;;;;;14.30;7.97;;;;;;;;;;5062537;28;20380;-87
2021/07/12 04:04:24;;;;;;;11.98;8.02;;;;;;;;;;5059422;28;20019;-87
2021/07/12 04:06:49;;;;;;;14.45;7.63;;;;;;;;;;5066006;28;20008;-88
2021/07/12 04:09:14;;;;;;;12.63;7.63;;;;;;;;;;5057988;28;20074;-87
2021/07/12 04:11:41;;;;;;;10.13;7.05;;;;;;;;;;5067441;28;20491;-88
2021/07/12 04:14:06;;;;;;;14.90;7.18;;;;;;;;;;5069945;28;20016;-88
2021/07/12 04:16:31;;;;;;;10.65;7.35;;;;;;;;;;5071881;28;20416;-88
2021/07/12 04:18:57;;;;;;;9.85;6.70;;;;;;;;;;5055822;28;20021;-87
2021/07/12 04:21:22;;;;;;;12.57;6.55;;;;;;;;;;5053988;28;20045;-88
2021/07/12 04:23:47;;;;;;;12.05;6.90;;;;;;;;;;5052714;28;20020;-88
2021/07/12 04:26:12;;;;;;;10.80;7.18;;;;;;;;;;5057338;28;20182;-87
2021/07/12 04:28:37;;;;;;;9.13;6.65;;;;;;;;;;5053284;28;20021;-87
2021/07/12 04:31:03;;;;;;;12.20;6.90;;;;;;;;;;5052916;28;20029;-88
2021/07/12 04:33:28;;;;;;;8.23;6.35;;;;;;;;;;5071205;28;20016;-87
2021/07/12 04:35:54;;;;;;;9.70;6.85;;;;;;;;;;5072929;28;20016;-88
2021/07/12 04:38:19;;;;;;;11.63;6.28;;;;;;;;;;5054739;28;20017;-87
2021/07/12 04:40:44;;;;;;;9.63;6.00;;;;;;;;;;5051236;28;20025;-88
2021/07/12 04:43:10;;;;;;;18.23;6.18;;;;;;;;;;5066513;28;20025;-88
2021/07/12 04:45:35;;;;;;;8.07;6.03;;;;;;;;;;5063187;28;20365;-88
2021/07/12 04:48:00;;;;;;;12.32;5.63;;;;;;;;;;5066135;28;20016;-88
2021/07/12 04:50:25;;;;;;;14.20;6.00;;;;;;;;;;5051649;28;20025;-88
2021/07/12 04:52:50;;;;;;;12.40;6.57;;;;;;;;;;5051640;28;20032;-87
2021/07/12 04:55:16;;;;;;;9.35;6.60;;;;;;;;;;5065328;28;20016;-88
2021/07/12 04:57:41;;;;;;;8.90;5.88;;;;;;;;;;5057090;28;20059;-87
2021/07/12 05:00:08;;;;;;;10.73;6.75;;;;;;;;;;5062055;28;20017;-87
2021/07/12 05:02:33;;;;;;;10.52;6.68;;;;;;;;;;5064390;28;20024;-88
2021/07/12 05:04:58;;;;;;;11.25;6.18;;;;;;;;;;5055621;28;20020;-87
2021/07/12 05:07:25;;;;;;;8.05;5.82;;;;;;;;;;5056163;28;20459;-87
2021/07/12 05:09:50;;;;;;;8.48;6.03;;;;;;;;;;5060629;28;20021;-88
2021/07/12 05:12:16;;;;;;;10.20;5.85;;;;;;;;;;5050950;28;20025;-88
2021/07/12 05:14:42;;;;;;;9.38;5.85;;;;;;;;;;5059319;28;20051;-88
2021/07/12 05:17:07;;;;;;;10.40;6.15;;;;;;;;;;5058663;28;20448;-88
2021/07/12 05:19:32;;;;;;;10.45;6.60;;;;;;;;;;5057658;28;20048;-88
2021/07/12 05:21:58;;;;;;;10.60;6.25;;;;;;;;;;5050928;28;20025;-88
2021/07/12 05:24:23;;;;;;;10.27;6.43;;;;;;;;;;5059620;28;20033;-88
2021/07/12 05:26:49;;;;;;;10.57;5.93;;;;;;;;;;5066721;28;20021;-88
2021/07/12 05:29:14;;;;;;;17.80;6.95;;;;;;;;;;5063994;28;20017;-88
2021/07/12 05:31:39;;;;;;;10.45;6.55;;;;;;;;;;5064924;28;20416;-89
2021/07/12 05:34:04;;;;;;;10.70;6.45;;;;;;;;;;5051150;28;20484;-88
2021/07/12 05:36:30;;;;;;;11.98;6.22;;;;;;;;;;5066041;28;20391;-88
2021/07/12 05:38:55;;;;;;;8.75;6.18;;;;;;;;;;5059601;28;20025;-88
2021/07/12 05:41:20;;;;;;;11.88;6.63;;;;;;;;;;5056858;28;20021;-87
2021/07/12 05:43:45;;;;;;;9.95;6.13;;;;;;;;;;5071101;28;20016;-88
2021/07/12 05:46:10;;;;;;;9.63;5.80;;;;;;;;;;5058672;28;20090;-88
2021/07/12 05:48:36;;;;;;;9.82;5.80;;;;;;;;;;5053319;28;20025;-88
2021/07/12 05:51:01;;;;;;;8.98;6.50;;;;;;;;;;5050896;28;20029;-88
2021/07/12 05:53:27;;;;;;;11.52;5.68;;;;;;;;;;5052614;28;20580;-88
2021/07/12 05:55:52;;;;;;;8.55;5.35;;;;;;;;;;5068967;28;20020;-88
2021/07/12 05:58:18;;;;;;;10.80;4.60;;;;;;;;;;5066317;28;20017;-88
2021/07/12 06:00:43;;;;;;;8.38;4.28;;;;;;;;;;5074367;28;20360;-88
2021/07/12 06:03:08;;;;;;;6.55;3.70;;;;;;;;;;5062728;28;20540;-88
2021/07/12 06:05:33;;;;;;;5.00;3.60;;;;;;;;;;5065484;28;20044;-88
2021/07/12 06:07:59;;;;;;;5.45;3.88;;;;;;;;;;5074433;28;20036;-88
2021/07/12 06:10:24;;;;;;;6.38;4.00;;;;;;;;;;5063884;28;20029;-88
2021/07/12 06:12:49;;;;;;;10.35;4.07;;;;;;;;;;5058909;28;20020;-88
2021/07/12 06:15:14;;;;;;;6.35;4.28;;;;;;;;;;5054284;28;20059;-89
2021/07/12 06:17:40;;;;;;;6.22;4.15;;;;;;;;;;5059673;28;20009;-89
2021/07/12 06:20:06;;;;;;;10.63;3.88;;;;;;;;;;5061260;28;20464;-89
2021/07/12 06:22:31;;;;;;;5.03;3.40;;;;;;;;;;5067506;28;20390;-89
2021/07/12 06:24:56;;;;;;;5.03;3.70;;;;;;;;;;5060071;28;20017;-89
2021/07/12 06:27:22;;;;;;;10.77;3.58;;;;;;;;;;5056472;28;20025;-89
2021/07/12 06:29:47;;;;;;;6.75;3.50;;;;;;;;;;5066557;28;20016;-90
2021/07/12 06:32:12;;;;;;;4.25;3.60;;;;;;;;;;5053346;28;20052;-89
2021/07/12 06:34:37;;;;;;;5.38;3.60;;;;;;;;;;5065557;28;20069;-89
2021/07/12 06:37:03;;;;;;;8.23;3.83;;;;;;;;;;5066731;28;20472;-88
2021/07/12 06:39:28;;;;;;;5.55;3.65;;;;;;;;;;5060400;28;20104;-88
2021/07/12 06:41:53;;;;;;;5.10;3.60;;;;;;;;;;5061437;28;20106;-89
2021/07/12 06:44:18;;;;;;;6.35;3.45;;;;;;;;;;5053301;28;20231;-88
2021/07/12 06:46:45;;;;;;;6.28;3.33;;;;;;;;;;5060197;28;20469;-89
2021/07/12 06:49:10;;;;;;;7.90;3.63;;;;;;;;;;5058132;28;20021;-88
2021/07/12 06:51:35;;;;;;;5.82;3.40;;;;;;;;;;5068401;28;20055;-88
2021/07/12 06:54:01;;;;;;;5.65;3.33;;;;;;;;;;5074651;28;20472;-89
2021/07/12 06:56:26;;;;;;;5.88;3.72;;;;;;;;;;5063928;28;20102;-89
2021/07/12 06:58:51;;;;;;;7.60;3.40;;;;;;;;;;5068630;28;20107;-89
2021/07/12 07:01:17;;;;;;;4.63;3.25;;;;;;;;;;5055022;28;20476;-89
2021/07/12 07:03:42;;;;;;;5.53;3.50;;;;;;;;;;5061565;28;20079;-90
2021/07/12 07:06:08;;;;;;;4.18;3.05;;;;;;;;;;5059192;28;20020;-89
2021/07/12 07:08:33;;;;;;;5.97;3.53;;;;;;;;;;5067420;28;20069;-89
2021/07/12 07:10:58;;;;;;;7.82;3.40;;;;;;;;;;5055763;28;20476;-89
2021/07/12 07:13:24;;;;;;;3.80;3.10;;;;;;;;;;5065011;28;20032;-88
2021/07/12 07:15:49;;;;;;;5.55;3.63;;;;;;;;;;5061003;28;20417;-89
2021/07/12 07:18:14;;;;;;;5.03;3.33;;;;;;;;;;5052525;28;20021;-88
2021/07/12 07:20:39;;;;;;;7.38;3.40;;;;;;;;;;5054402;28;20106;-89
2021/07/12 07:23:05;;;;;;;5.47;3.63;;;;;;;;;;5053328;28;20070;-89
2021/07/12 07:25:30;;;;;;;5.82;3.30;;;;;;;;;;5057431;28;20352;-89
2021/07/12 07:27:55;;;;;;;7.20;3.05;;;;;;;;;;5052842;28;20043;-89
2021/07/12 07:30:20;;;;;;;4.20;2.88;;;;;;;;;;5051443;28;20025;-89
2021/07/12 07:32:46;;;;;;;5.45;3.42;;;;;;;;;;5056602;28;20115;-88
2021/07/12 07:35:11;;;;;;;7.13;3.25;;;;;;;;;;5060485;28;20036;-90
2021/07/12 07:37:37;;;;;;;4.30;3.10;;;;;;;;;;5050894;28;20384;-89
2021/07/12 07:40:03;;;;;;;8.55;3.28;;;;;;;;;;5051747;28;20063;-87
2021/07/12 07:42:29;;;;;;;7.60;3.47;;;;;;;;;;5085948;28;20208;-87
2021/07/12 07:44:57;;;;;;;5.35;3.30;;;;;;;;;;5053235;28;20057;-87
2021/07/12 07:47:23;;;;;;;6.55;3.78;;;;;;;;;;5051723;28;20047;-87
2021/07/12 07:49:49;;;;;;;3.55;2.65;;;;;;;;;;5051534;28;20028;-87
2021/07/12 07:52:14;;;;;;;4.82;3.22;;;;;;;;;;5052267;28;20024;-87
2021/07/12 07:54:39;;;;;;;5.53;2.85;;;;;;;;;;5053481;28;20013;-88
2021/07/12 07:57:04;;;;;;;5.57;2.97;;;;;;;;;;5051986;28;20013;-87
2021/07/12 07:59:30;;;;;;;7.30;2.85;;;;;;;;;;5058619;28;20023;-87
2021/07/12 08:01:55;;;;;;;6.20;3.28;;;;;;;;;;5055473;28;20107;-88
2021/07/12 08:04:20;;;;;;;3.95;2.72;;;;;;;;;;5052081;28;20037;-87
2021/07/12 08:06:46;;;;;;;6.88;3.53;;;;;;;;;;5053764;28;20047;-87
2021/07/12 08:09:11;;;;;;;8.07;4.15;;;;;;;;;;5051837;28;20380;-87
2021/07/12 08:11:36;;;;;;;8.20;3.55;;;;;;;;;;5053656;28;20035;-87
2021/07/12 08:14:01;;;;;;;3.97;3.15;;;;;;;;;;5061100;28;20025;-88
2021/07/12 08:16:27;;;;;;;6.18;3.05;;;;;;;;;;5053222;28;20029;-87
2021/07/12 08:18:52;;;;;;;4.13;2.90;;;;;;;;;;5052729;28;20025;-87
2021/07/12 08:21:17;;;;;;;3.72;2.67;;;;;;;;;;5052224;28;20013;-87
2021/07/12 08:23:42;;;;;;;3.63;2.88;;;;;;;;;;5059860;28;20023;-87
2021/07/12 08:26:11;;;;;;;6.45;3.00;;;;;;;;;;5072006;28;20031;-87
2021/07/12 08:28:37;;;;;;;4.15;2.97;;;;;;;;;;5072104;28;20017;-87
2021/07/12 08:31:03;;;;;;;8.02;3.10;;;;;;;;;;5072026;28;20048;-87
2021/07/12 08:33:28;;;;;;;4.50;2.92;;;;;;;;;;5064550;28;20017;-87
2021/07/12 08:35:53;;;;;;;6.07;2.92;;;;;;;;;;5063745;28;20436;-87
2021/07/12 08:38:19;;;;;;;6.53;2.78;;;;;;;;;;5069862;28;20418;-87
2021/07/12 08:40:44;;;;;;;4.05;2.83;;;;;;;;;;5064708;28;20422;-87
2021/07/12 08:43:11;;;;;;;4.55;2.70;;;;;;;;;;5056458;28;20051;-87
2021/07/12 08:45:36;;;;;;;4.38;3.03;;;;;;;;;;5068176;28;20025;-87
2021/07/12 08:48:02;;;;;;;5.20;2.80;;;;;;;;;;5065205;28;20465;-87
2021/07/12 08:50:27;;;;;;;3.65;2.90;;;;;;;;;;5065104;28;20024;-87
2021/07/12 08:52:53;;;;;;;4.53;3.33;;;;;;;;;;5065456;28;20028;-87
2021/07/12 08:55:19;;;;;;;7.68;2.92;;;;;;;;;;5051833;28;20028;-87
2021/07/12 08:58:02;;;;;;;4.72;3.10;;;;;;;;;;5056079;28;20036;-86
2021/07/12 09:00:42;;;;;;;5.93;3.53;;;;;;;;;;5050482;28;20491;-87
2021/07/12 09:03:18;;;;;;;4.28;2.67;;;;;;;;;;5050212;28;20372;-86
2021/07/12 09:06:01;;;;;;;3.95;2.75;;;;;;;;;;5057318;28;20040;-87
2021/07/12 09:08:33;;;;;;;3.42;2.65;;;;;;;;;;5053099;28;20033;-87
2021/07/12 09:11:09;;;;;;;4.80;2.90;;;;;;;;;;5042485;28;20021;-87
2021/07/12 09:14:01;;;;;;;6.53;3.10;;;;;;;;;;5054459;28;20025;-87
2021/07/12 09:16:26;;;;;;;5.30;2.60;;;;;;;;;;5079549;28;20480;-86
2021/07/12 09:19:02;;;;;;;3.78;2.53;;;;;;;;;;5058663;28;20032;-87
2021/07/12 09:21:31;;;;;;;3.65;2.70;;;;;;;;;;5047367;28;20021;-87
2021/07/12 09:24:10;;;;;;;7.95;2.85;;;;;;;;;;5054015;28;20021;-87
2021/07/12 09:26:39;;;;;;;6.25;2.80;;;;;;;;;;5056302;28;20021;-87
2021/07/12 09:29:04;;;;;;;4.95;2.70;;;;;;;;;;5051418;28;20029;-87
2021/07/12 09:31:31;;;;;;;3.83;2.50;;;;;;;;;;5069071;28;20021;-87
2021/07/12 09:33:59;;;;;;;6.97;2.15;;;;;;;;;;5054666;28;20037;-87
2021/07/12 09:36:24;;;;;;;7.93;2.33;;;;;;;;;;5055628;28;20028;-86
2021/07/12 09:38:49;;;;;;;6.50;2.60;;;;;;;;;;5054635;28;20021;-87
2021/07/12 09:41:27;;;;;;;6.38;2.70;;;;;;;;;;5055984;28;20091;-87
2021/07/12 09:43:59;;;;;;;8.30;2.75;;;;;;;;;;5052804;28;20021;-87
2021/07/12 09:46:28;;;;;;;4.97;3.13;;;;;;;;;;5053143;28;20028;-87
2021/07/12 09:49:16;;;;;;;5.35;3.00;;;;;;;;;;5054320;28;20033;-87
2021/07/12 09:51:42;;;;;;;4.53;3.05;;;;;;;;;;5054421;28;20052;-87
2021/07/12 09:54:26;;;;;;;4.82;2.83;;;;;;;;;;5053626;28;20484;-87
2021/07/12 09:56:55;;;;;;;6.70;3.08;;;;;;;;;;5054081;28;20059;-88
2021/07/12 09:59:21;;;;;;;9.02;2.75;;;;;;;;;;5054390;28;20363;-87
2021/07/12 10:01:53;;;;;;;4.57;2.75;;;;;;;;;;5052580;28;20024;-87
2021/07/12 10:04:18;;;;;;;3.85;2.53;;;;;;;;;;5068602;28;20094;-87
2021/07/12 10:06:45;;;;;;;7.00;2.90;;;;;;;;;;5050853;28;20016;-87
2021/07/12 10:09:10;;;;;;;4.97;2.80;;;;;;;;;;5054584;28;20044;-87
2021/07/12 10:11:35;;;;;;;4.18;2.25;;;;;;;;;;5054040;28;20461;-87
2021/07/12 10:14:02;;;;;;;4.63;2.58;;;;;;;;;;5050303;28;20017;-87
2021/07/12 10:16:28;;;;;;;3.67;2.38;;;;;;;;;;5055576;28;20067;-87
2021/07/12 10:18:54;;;;;;;4.90;2.75;;;;;;;;;;5055398;28;20037;-87
2021/07/12 10:21:20;;;;;;;6.47;2.90;;;;;;;;;;5067593;28;20056;-87
2021/07/12 10:23:45;;;;;;;9.68;2.95;;;;;;;;;;5060786;28;20048;-87
2021/07/12 10:26:10;;;;;;;5.05;2.67;;;;;;;;;;5069334;28;20107;-87
2021/07/12 10:28:37;;;;;;;4.75;2.63;;;;;;;;;;5063544;28;20049;-87
2021/07/12 10:31:15;;;;;;;4.90;2.58;;;;;;;;;;5055726;28;20112;-87
2021/07/12 10:33:40;;;;;;;5.80;2.58;;;;;;;;;;5063240;28;20025;-87
2021/07/12 10:36:07;;;;;;;4.45;2.80;;;;;;;;;;5054115;28;20482;-87
2021/07/12 10:38:37;;;;;;;3.58;2.50;;;;;;;;;;5054604;28;20017;-87
2021/07/12 10:41:16;;;;;;;5.05;2.70;;;;;;;;;;5050805;28;20047;-87
2021/07/12 10:43:41;;;;;;;4.88;2.80;;;;;;;;;;5053101;28;20367;-87
2021/07/12 10:46:07;;;;;;;3.00;2.45;;;;;;;;;;5052918;28;20111;-87
2021/07/12 10:48:34;;;;;;;5.35;2.78;;;;;;;;;;5052697;28;20028;-88
2021/07/12 10:51:13;;;;;;;5.43;3.15;;;;;;;;;;5051845;28;20162;-87
2021/07/12 10:53:39;;;;;;;3.42;2.70;;;;;;;;;;5053213;28;20051;-87
2021/07/12 10:56:08;;;;;;;4.20;3.00;;;;;;;;;;5053295;28;20029;-89
2021/07/12 10:58:34;;;;;;;4.38;2.88;;;;;;;;;;5047670;28;20472;-88
2021/07/12 11:01:02;;;;;;;3.53;2.88;;;;;;;;;;5056131;28;20493;-86
2021/07/12 11:03:38;;;;;;;5.38;3.00;;;;;;;;;;5060450;28;20017;-86
2021/07/12 11:06:06;;;;;;;4.18;2.40;;;;;;;;;;5066251;28;20029;-87
2021/07/12 11:08:45;;;;;;;3.97;2.65;;;;;;;;;;5061121;28;20016;-86
2021/07/12 11:11:12;;;;;;;4.80;3.05;;;;;;;;;;5049521;28;20025;-87
2021/07/12 11:13:58;;;;;;;4.65;2.67;;;;;;;;;;5087775;28;20033;-86
2021/07/12 11:16:29;;;;;;;4.60;2.95;;;;;;;;;;5060100;28;20059;-87
2021/07/12 11:18:55;;;;;;;4.28;2.70;;;;;;;;;;5063003;28;20096;-86
2021/07/12 11:21:30;;;;;;;3.50;2.88;;;;;;;;;;5066881;28;20111;-87
2021/07/12 11:24:19;;;;;;;3.45;2.80;;;;;;;;;;5063063;28;20105;-86
2021/07/12 11:26:48;;;;;;;4.28;2.90;;;;;;;;;;5066985;28;20013;-86
2021/07/12 11:29:32;;;;;;;3.42;2.75;;;;;;;;;;5062080;28;20102;-86
2021/07/12 11:32:07;;;;;;;4.65;2.80;;;;;;;;;;5060233;28;20111;-86
2021/07/12 11:34:32;;;;;;;3.60;2.90;;;;;;;;;;5066421;28;20051;-86
2021/07/12 11:37:27;;;;;;;4.88;3.35;;;;;;;;;;5060174;28;20516;-86
2021/07/12 11:39:53;;;;;;;7.25;3.20;;;;;;;;;;5051073;28;20123;-86
2021/07/12 11:42:23;;;;;;;4.13;3.10;;;;;;;;;;5057249;28;20017;-86
2021/07/12 11:44:49;;;;;;;4.40;3.83;;;;;;;;;;5051291;28;20025;-86
2021/07/12 11:47:15;;;;;;;4.43;2.95;;;;;;;;;;5051892;28;20518;-87
2021/07/12 11:49:47;;;;;;;6.32;3.20;;;;;;;;;;5050840;28;20032;-87
2021/07/12 11:52:12;;;;;;;4.85;2.90;;;;;;;;;;5050789;28;20025;-87
2021/07/12 11:54:38;;;;;;;4.10;2.88;;;;;;;;;;5051775;28;20598;-87
2021/07/12 11:57:14;;;;;;;5.55;3.78;;;;;;;;;;5051351;28;20045;-87
2021/07/12 11:59:40;;;;;;;4.15;3.10;;;;;;;;;;5051828;28;20013;-86
2021/07/12 12:02:15;;;;;;;6.32;3.25;;;;;;;;;;5053254;28;20364;-86
2021/07/12 12:04:40;;;;;;;4.72;3.13;;;;;;;;;;5051480;28;20024;-86
2021/07/12 12:07:24;;;;;;;4.05;2.90;;;;;;;;;;5051649;28;20523;-86
2021/07/12 12:09:53;;;;;;;4.85;3.25;;;;;;;;;;5052800;28;20504;-87
2021/07/12 12:12:22;;;;;;;5.03;3.17;;;;;;;;;;5051475;28;20104;-87
2021/07/12 12:14:48;;;;;;;3.58;3.20;;;;;;;;;;5051680;28;20464;-87
2021/07/12 12:17:13;;;;;;;4.28;3.47;;;;;;;;;;5051090;28;20013;-87
2021/07/12 12:19:38;;;;;;;4.93;3.10;;;;;;;;;;5049060;28;20017;-86
2021/07/12 12:22:03;;;;;;;4.50;3.30;;;;;;;;;;5052116;28;20810;-87
2021/07/12 12:24:28;;;;;;;3.78;2.72;;;;;;;;;;5061811;28;20107;-88
2021/07/12 12:26:54;;;;;;;8.10;3.10;;;;;;;;;;5054330;28;20425;-87
2021/07/12 12:29:21;;;;;;;7.25;3.05;;;;;;;;;;5061476;28;20031;-87
2021/07/12 12:31:46;;;;;;;9.40;2.92;;;;;;;;;;5059095;28;20016;-86
2021/07/12 12:34:13;;;;;;;6.82;2.72;;;;;;;;;;5060601;28;20078;-86
2021/07/12 12:36:40;;;;;;;3.35;2.70;;;;;;;;;;5058952;28;20395;-86
2021/07/12 12:39:19;;;;;;;6.18;2.97;;;;;;;;;;5063165;28;20037;-86
2021/07/12 12:41:46;;;;;;;4.15;2.90;;;;;;;;;;5062230;28;20009;-87
2021/07/12 12:44:12;;;;;;;5.30;2.97;;;;;;;;;;5060187;28;20017;-86
2021/07/12 12:46:48;;;;;;;7.28;3.47;;;;;;;;;;5047630;28;20029;-86
2021/07/12 12:49:16;;;;;;;4.35;2.90;;;;;;;;;;5061549;28;20028;-87
2021/07/12 12:52:05;;;;;;;5.95;3.03;;;;;;;;;;5058592;28;20020;-86
2021/07/12 12:54:31;;;;;;;4.53;3.25;;;;;;;;;;5063302;28;20047;-87
2021/07/12 12:56:57;;;;;;;5.00;3.40;;;;;;;;;;5059603;28;20388;-86
2021/07/12 12:59:30;;;;;;;9.15;3.20;;;;;;;;;;5059265;28;20013;-87
2021/07/12 13:02:10;;;;;;;10.05;3.30;;;;;;;;;;5058056;28;20367;-87
2021/07/12 13:04:48;;;;;;;4.78;3.33;;;;;;;;;;5061948;28;20013;-87
2021/07/12 13:07:17;;;;;;;4.00;2.97;;;;;;;;;;5054046;28;20532;-87
2021/07/12 13:09:43;;;;;;;6.93;3.38;;;;;;;;;;5054540;28;20021;-87
2021/07/12 13:12:09;;;;;;;3.63;2.90;;;;;;;;;;5054830;28;20078;-87
2021/07/12 13:14:34;;;;;;;3.97;2.80;;;;;;;;;;5055445;28;20020;-88
2021/07/12 13:17:06;;;;;;;7.40;2.80;;;;;;;;;;5056257;28;20025;-87
2021/07/12 13:19:31;;;;;;;3.97;3.17;;;;;;;;;;5045605;28;20103;-87
2021/07/12 13:21:57;;;;;;;7.43;2.70;;;;;;;;;;5069360;28;20059;-87
2021/07/12 13:24:41;;;;;;;3.70;2.78;;;;;;;;;;5060502;28;20414;-87
2021/07/12 13:27:07;;;;;;;3.80;3.00;;;;;;;;;;5075462;28;20523;-87
2021/07/12 13:29:32;;;;;;;3.55;2.70;;;;;;;;;;5061200;28;20048;-87
2021/07/12 13:31:57;;;;;;;3.30;2.50;;;;;;;;;;5075269;28;20020;-87
2021/07/12 13:34:22;;;;;;;4.00;2.58;;;;;;;;;;5075168;28;20453;-87
2021/07/12 13:36:48;;;;;;;7.38;2.78;;;;;;;;;;5074720;28;20066;-87
2021/07/12 13:39:13;;;;;;;4.68;2.38;;;;;;;;;;5075010;28;20016;-87
2021/07/12 13:41:38;;;;;;;5.13;2.80;;;;;;;;;;5074909;28;20032;-87
2021/07/12 13:44:04;;;;;;;3.00;2.50;;;;;;;;;;5065906;28;20028;-87
2021/07/12 13:46:29;;;;;;;4.20;2.88;;;;;;;;;;5061962;28;20492;-87
2021/07/12 13:48:54;;;;;;;2.17;1.30;;;;;;;;;;5074901;28;20090;-87
2021/07/12 13:51:19;;;;;;;3.20;1.48;;;;;;;;;;5070757;28;20025;-88
2021/07/12 13:53:44;;;;;;;3.83;2.35;;;;;;;;;;5069935;28;20078;-87
2021/07/12 13:56:10;;;;;;;3.83;2.45;;;;;;;;;;5075965;28;20020;-87
2021/07/12 13:58:35;;;;;;;6.43;2.30;;;;;;;;;;5061747;28;20025;-87
2021/07/12 14:01:00;;;;;;;4.55;2.08;;;;;;;;;;5071319;28;20027;-87
2021/07/12 14:03:28;;;;;;;9.35;2.58;;;;;;;;;;5071290;28;20025;-88
2021/07/12 14:05:53;;;;;;;7.32;2.70;;;;;;;;;;5071000;28;20560;-89
2021/07/12 14:08:18;;;;;;;5.70;2.70;;;;;;;;;;5072122;28;20033;-89
2021/07/12 14:10:44;;;;;;;6.13;2.70;;;;;;;;;;5070138;28;20025;-88
2021/07/12 14:13:09;;;;;;;7.82;2.10;;;;;;;;;;5070964;28;20063;-88
2021/07/12 14:15:34;;;;;;;5.22;2.40;;;;;;;;;;5056917;28;20100;-90
2021/07/12 14:17:59;;;;;;;5.45;2.40;;;;;;;;;;5055999;28;20014;-90
2021/07/12 14:20:25;;;;;;;7.63;2.40;;;;;;;;;;5060088;28;20028;-89
2021/07/12 14:22:50;;;;;;;5.47;2.25;;;;;;;;;;5055522;28;20021;-90
2021/07/12 14:25:15;;;;;;;8.45;2.40;;;;;;;;;;5062852;28;20020;-89
2021/07/12 14:27:42;;;;;;;7.72;2.65;;;;;;;;;;5061490;28;20100;-89
2021/07/12 14:30:07;;;;;;;8.23;2.25;;;;;;;;;;5046586;28;20024;-89
2021/07/12 14:32:32;;;;;;;3.25;2.20;;;;;;;;;;5063483;28;20024;-90
2021/07/12 14:34:58;;;;;;;6.85;2.00;;;;;;;;;;5062546;28;20384;-89
2021/07/12 14:37:23;;;;;;;6.55;2.53;;;;;;;;;;5071388;28;20066;-88
2021/07/12 14:39:48;;;;;;;6.63;1.58;;;;;;;;;;5057146;28;20228;-89
2021/07/12 14:42:13;;;;;;;5.28;1.73;;;;;;;;;;5067527;28;20008;-88